createdAt,value
2022-09-07T00:02:02.009Z,2.97
2022-09-07T00:04:28.863Z,5.10
2022-09-07T00:06:55.721Z,3.03
2022-09-07T00:09:22.595Z,2.58
2022-09-07T00:11:49.256Z,2.72
2022-09-07T00:14:15.897Z,1.75
2022-09-07T00:16:42.729Z,1.80
2022-09-07T00:19:09.436Z,1.80
2022-09-07T00:21:37.523Z,2.00
2022-09-07T00:24:04.705Z,1.50
2022-09-07T00:26:31.505Z,2.90
2022-09-07T00:29:03.669Z,2.20
2022-09-07T00:31:31.702Z,2.30
2022-09-07T00:34:00.671Z,2.22
2022-09-07T00:36:28.018Z,3.20
2022-09-07T00:38:54.932Z,1.85
2022-09-07T00:41:22.739Z,2.00
2022-09-07T00:43:58.305Z,2.25
2022-09-07T00:46:28.281Z,3.08
2022-09-07T00:48:57.952Z,2.30
2022-09-07T00:51:33.933Z,2.17
2022-09-07T00:54:07.853Z,2.08
2022-09-07T00:56:38.813Z,1.77
2022-09-07T00:59:06.786Z,1.92
2022-09-07T01:01:34.570Z,2.40
2022-09-07T01:04:03.064Z,2.65
2022-09-07T01:06:35.049Z,3.20
2022-09-07T01:09:06.832Z,2.08
2022-09-07T01:11:37.402Z,3.22
2022-09-07T01:14:11.531Z,4.63
2022-09-07T01:16:59.933Z,3.92
2022-09-07T01:19:54.947Z,2.42
2022-09-07T01:22:49.761Z,2.72
2022-09-07T01:25:26.149Z,3.53
2022-09-07T01:28:04.109Z,4.35
2022-09-07T01:30:36.469Z,3.47
2022-09-07T01:33:43.053Z,2.80
2022-09-07T01:36:34.822Z,3.67
2022-09-07T01:39:06.053Z,5.72
2022-09-07T01:41:42.497Z,3.35
2022-09-07T01:44:19.605Z,2.78
2022-09-07T01:47:04.630Z,3.88
2022-09-07T01:49:43.253Z,2.40
2022-09-07T01:52:31.304Z,3.45
2022-09-07T01:55:15.901Z,2.53
2022-09-07T01:57:48.923Z,5.20
2022-09-07T02:00:19.156Z,2.70
2022-09-07T02:02:59.484Z,4.65
2022-09-07T02:05:34.913Z,3.08
2022-09-07T02:08:15.907Z,2.20
2022-09-07T02:11:07.111Z,2.30
2022-09-07T02:13:41.949Z,2.22
2022-09-07T02:16:24.654Z,3.40
2022-09-07T02:18:56.469Z,3.97
2022-09-07T02:21:38.623Z,4.32
2022-09-07T02:24:12.249Z,2.83
2022-09-07T02:26:40.921Z,2.75
2022-09-07T02:29:08.103Z,4.30
2022-09-07T02:31:34.991Z,4.75
2022-09-07T02:34:02.198Z,4.57
2022-09-07T02:36:35.376Z,4.40
2022-09-07T02:39:02.203Z,3.70
2022-09-07T02:41:30.789Z,3.40
2022-09-07T02:43:58.433Z,6.38
2022-09-07T02:46:34.242Z,7.63
2022-09-07T02:49:13.965Z,6.53
2022-09-07T02:52:02.671Z,5.88
2022-09-07T02:54:39.053Z,7.32
2022-09-07T02:57:14.607Z,6.32
2022-09-07T02:59:56.527Z,7.50
2022-09-07T03:02:31.848Z,7.07
2022-09-07T03:05:01.287Z,7.20
2022-09-07T03:07:43.970Z,5.53
2022-09-07T03:10:13.263Z,5.57
2022-09-07T03:12:45.896Z,5.78
2022-09-07T03:15:15.005Z,5.10
2022-09-07T03:17:43.260Z,4.55
2022-09-07T03:20:10.408Z,7.78
2022-09-07T03:22:37.438Z,4.15
2022-09-07T03:25:05.109Z,4.35
2022-09-07T03:27:32.896Z,5.65
2022-09-07T03:30:00.755Z,5.65
2022-09-07T03:32:33.212Z,4.75
2022-09-07T03:35:00.704Z,4.78
2022-09-07T03:37:27.492Z,5.03
2022-09-07T03:39:54.437Z,4.30
2022-09-07T03:42:22.082Z,6.07
2022-09-07T03:44:51.505Z,5.10
2022-09-07T03:47:19.339Z,4.75
2022-09-07T03:49:46.358Z,5.03
2022-09-07T03:52:13.015Z,6.18
2022-09-07T03:54:40.049Z,4.45
2022-09-07T03:57:07.381Z,4.70
2022-09-07T03:59:34.913Z,4.05
2022-09-07T04:02:02.717Z,3.30
2022-09-07T04:04:30.469Z,4.57
2022-09-07T04:06:57.256Z,4.35
2022-09-07T04:09:24.253Z,3.83
2022-09-07T04:11:51.199Z,3.28
2022-09-07T04:14:17.964Z,5.00
2022-09-07T04:16:45.809Z,5.75
2022-09-07T04:19:12.557Z,6.20
2022-09-07T04:21:39.333Z,4.28
2022-09-07T04:24:06.273Z,8.15
2022-09-07T04:26:34.705Z,7.07
2022-09-07T04:29:02.834Z,7.50
2022-09-07T04:31:30.217Z,5.72
2022-09-07T04:33:57.021Z,5.65
2022-09-07T04:36:25.001Z,6.82
2022-09-07T04:39:00.842Z,6.57
2022-09-07T04:41:31.079Z,6.00
2022-09-07T04:44:00.372Z,6.30
2022-09-07T04:46:30.252Z,7.43
2022-09-07T04:48:59.258Z,4.82
2022-09-07T04:51:29.128Z,7.43
2022-09-07T04:53:59.647Z,3.97
2022-09-07T04:56:26.962Z,4.68
2022-09-07T04:58:53.691Z,6.40
2022-09-07T05:01:22.618Z,7.57
2022-09-07T05:03:51.516Z,7.13
2022-09-07T05:06:19.507Z,10.65
2022-09-07T05:08:49.455Z,6.22
2022-09-07T05:11:17.386Z,8.13
2022-09-07T05:13:44.236Z,9.20
2022-09-07T05:16:14.120Z,6.10
2022-09-07T05:18:41.129Z,8.05
2022-09-07T05:21:19.742Z,5.65
2022-09-07T05:23:50.692Z,7.22
2022-09-07T05:26:18.690Z,7.35
2022-09-07T05:28:45.552Z,6.38
2022-09-07T05:36:41.040Z,9.48
2022-09-07T05:39:08.728Z,5.38
2022-09-07T05:41:35.664Z,4.30
2022-09-07T05:46:49.560Z,6.07
2022-09-07T05:49:16.253Z,5.13
2022-09-07T05:51:43.025Z,6.88
2022-09-07T05:54:11.430Z,6.80
2022-09-07T05:56:38.120Z,3.72
2022-09-07T05:59:05.320Z,4.05
2022-09-07T06:01:32.355Z,2.40
2022-09-07T06:03:59.077Z,2.80
2022-09-07T06:06:26.063Z,3.10
2022-09-07T06:08:53.990Z,3.63
2022-09-07T06:11:26.014Z,3.70
2022-09-07T06:13:53.345Z,3.33
2022-09-07T06:16:20.695Z,5.05
2022-09-07T06:18:50.189Z,3.55
2022-09-07T06:21:19.477Z,3.92
2022-09-07T06:23:47.451Z,4.72
2022-09-07T06:26:16.538Z,4.78
2022-09-07T06:28:49.136Z,5.00
2022-09-07T06:31:19.431Z,5.88
2022-09-07T06:33:47.851Z,4.32
2022-09-07T06:36:27.489Z,4.13
2022-09-07T06:38:56.025Z,4.95
2022-09-07T06:44:12.362Z,6.18
2022-09-07T06:49:26.352Z,6.72
2022-09-07T06:51:53.553Z,9.13
2022-09-07T06:57:09.493Z,8.23
2022-09-07T06:59:37.477Z,7.05
2022-09-07T07:02:05.909Z,7.57
2022-09-07T07:04:37.810Z,9.02
2022-09-07T07:07:06.639Z,10.15
2022-09-07T07:09:33.761Z,8.88
2022-09-07T07:12:00.774Z,12.15
2022-09-07T07:14:28.975Z,9.85
2022-09-07T07:16:57.052Z,11.93
2022-09-07T07:19:23.764Z,10.65
2022-09-07T07:22:18.830Z,10.65
2022-09-07T07:24:37.193Z,10.48
2022-09-07T07:27:03.930Z,10.32
2022-09-07T07:29:30.628Z,21.60
2022-09-07T07:31:58.013Z,12.50
2022-09-07T07:34:25.207Z,10.73
2022-09-07T07:36:51.881Z,12.18
2022-09-07T07:42:06.213Z,25.40
2022-09-07T07:44:33.216Z,12.20
2022-09-07T07:47:00.064Z,10.32
2022-09-07T07:49:27.046Z,11.65
2022-09-07T07:54:41.765Z,9.70
2022-09-07T07:57:09.414Z,8.65
2022-09-07T07:59:36.446Z,8.68
2022-09-07T08:02:05.668Z,9.00
2022-09-07T08:04:35.426Z,8.52
2022-09-07T08:07:09.440Z,7.95
2022-09-07T08:09:37.353Z,8.00
2022-09-07T08:12:04.185Z,8.73
2022-09-07T08:14:31.106Z,9.63
2022-09-07T08:16:57.840Z,7.30
2022-09-07T08:19:24.448Z,7.70
2022-09-07T08:21:51.325Z,8.52
2022-09-07T08:24:17.992Z,8.20
2022-09-07T08:26:44.837Z,6.97
2022-09-07T08:29:11.580Z,6.53
2022-09-07T08:31:38.444Z,6.55
2022-09-07T08:34:05.126Z,6.25
2022-09-07T08:36:32.032Z,5.20
2022-09-07T08:39:00.743Z,5.45
2022-09-07T08:41:56.661Z,5.95
2022-09-07T08:44:53.075Z,6.47
2022-09-07T08:47:46.101Z,5.15
2022-09-07T08:50:28.900Z,6.57
2022-09-07T08:53:06.263Z,5.43
2022-09-07T08:55:55.675Z,6.00
2022-09-07T08:58:48.155Z,4.57
2022-09-07T09:01:32.538Z,5.45
2022-09-07T09:04:16.873Z,5.45
2022-09-07T09:06:46.962Z,4.95
2022-09-07T09:09:46.841Z,6.07
2022-09-07T09:12:26.762Z,5.72
2022-09-07T09:15:15.787Z,5.55
2022-09-07T09:17:45.384Z,5.38
2022-09-07T09:20:47.413Z,4.72
2022-09-07T09:23:17.521Z,5.13
2022-09-07T09:25:57.153Z,4.70
2022-09-07T09:28:25.562Z,4.20
2022-09-07T09:30:54.900Z,3.97
2022-09-07T09:33:24.119Z,3.40
2022-09-07T09:35:54.744Z,3.47
2022-09-07T09:38:39.785Z,3.70
2022-09-07T09:41:09.557Z,3.35
2022-09-07T09:43:52.736Z,5.07
2022-09-07T09:46:37.117Z,5.03
2022-09-07T09:49:21.689Z,4.82
2022-09-07T09:54:43.426Z,3.70
2022-09-07T09:57:18.540Z,3.83
2022-09-07T10:00:06.963Z,3.22
2022-09-07T10:05:24.898Z,4.00
2022-09-07T10:07:53.780Z,2.90
2022-09-07T10:10:20.713Z,1.70
2022-09-07T10:12:47.520Z,2.05
2022-09-07T10:15:41.704Z,3.13
2022-09-07T10:18:21.440Z,2.42
2022-09-07T10:20:48.919Z,2.60
2022-09-07T10:23:22.201Z,2.85
2022-09-07T10:25:48.906Z,5.38
2022-09-07T10:28:23.073Z,2.42
2022-09-07T10:31:07.342Z,3.05
2022-09-07T10:34:26.579Z,2.85
2022-09-07T10:37:08.558Z,3.65
2022-09-07T10:39:41.612Z,2.13
2022-09-07T10:42:33.313Z,4.00
2022-09-07T10:45:35.896Z,2.58
2022-09-07T10:48:37.912Z,3.65
2022-09-07T10:51:14.347Z,3.90
2022-09-07T10:57:01.735Z,2.78
2022-09-07T11:06:16.126Z,2.42
2022-09-07T11:09:18.690Z,1.98
2022-09-07T11:12:04.336Z,1.25
2022-09-07T11:14:47.359Z,2.75
2022-09-07T11:17:27.005Z,2.47
2022-09-07T11:20:06.709Z,1.75
2022-09-07T11:22:39.679Z,1.58
2022-09-07T11:25:32.334Z,3.90
2022-09-07T11:28:25.745Z,2.95
2022-09-07T11:31:01.107Z,1.90
2022-09-07T11:33:36.943Z,3.35
2022-09-07T11:36:15.936Z,2.63
2022-09-07T11:38:47.835Z,2.85
2022-09-07T11:41:23.602Z,3.10
2022-09-07T11:43:59.780Z,2.83
2022-09-07T11:46:32.824Z,1.80
2022-09-07T11:49:00.118Z,2.97
2022-09-07T11:51:53.760Z,2.33
2022-09-07T11:54:35.433Z,1.27
2022-09-07T11:57:07.884Z,2.03
2022-09-07T11:59:57.209Z,1.00
2022-09-07T12:02:58.723Z,1.40
2022-09-07T12:05:41.619Z,2.20
2022-09-07T12:08:11.217Z,3.38
2022-09-07T12:10:54.346Z,2.53
2022-09-07T12:13:55.781Z,2.50
2022-09-07T12:16:40.890Z,2.95
2022-09-07T12:19:27.990Z,3.03
2022-09-07T12:21:56.336Z,2.72
2022-09-07T12:24:32.550Z,3.45
2022-09-07T12:27:04.245Z,1.33
2022-09-07T12:29:31.852Z,1.65
2022-09-07T12:32:52.692Z,1.30
2022-09-07T12:34:52.678Z,3.22
2022-09-07T12:37:40.133Z,2.97
2022-09-07T12:40:33.192Z,1.83
2022-09-07T12:43:18.004Z,1.80
2022-09-07T12:45:44.567Z,2.35
2022-09-07T12:48:17.304Z,3.80
2022-09-07T12:51:00.412Z,2.80
2022-09-07T12:53:42.280Z,4.93
2022-09-07T12:56:26.918Z,1.40
2022-09-07T12:59:20.303Z,1.45
2022-09-07T13:02:29.357Z,1.60
2022-09-07T13:05:02.593Z,2.08
2022-09-07T13:07:46.426Z,1.00
2022-09-07T13:10:43.625Z,2.03
2022-09-07T13:14:00.991Z,1.05
2022-09-07T13:16:05.852Z,2.13
2022-09-07T13:18:35.799Z,2.30
2022-09-07T13:21:08.437Z,1.88
2022-09-07T13:23:38.980Z,1.75
2022-09-07T13:26:09.856Z,1.42
2022-09-07T13:28:56.636Z,2.00
2022-09-07T13:31:42.327Z,1.40
2022-09-07T13:34:46.531Z,3.10
2022-09-07T13:37:17.124Z,4.40
2022-09-07T13:39:47.054Z,4.90
2022-09-07T13:42:24.487Z,1.60
2022-09-07T13:44:54.869Z,3.10
2022-09-07T13:47:40.568Z,2.47
2022-09-07T13:50:10.142Z,1.40
2022-09-07T13:52:47.233Z,1.55
2022-09-07T13:55:37.093Z,1.63
2022-09-07T13:58:13.924Z,3.50
2022-09-07T14:01:12.900Z,1.92
2022-09-07T14:03:48.047Z,3.47
2022-09-07T14:06:20.739Z,1.92
2022-09-07T14:08:49.798Z,1.65
2022-09-07T14:11:22.391Z,1.42
2022-09-07T14:14:13.719Z,3.20
2022-09-07T14:16:44.159Z,1.13
2022-09-07T14:19:18.761Z,2.40
2022-09-07T14:21:57.635Z,0.98
2022-09-07T14:24:39.441Z,0.85
2022-09-07T14:27:19.138Z,2.35
2022-09-07T14:29:45.771Z,2.15
2022-09-07T14:32:17.441Z,0.85
2022-09-07T14:34:45.100Z,1.00
2022-09-07T14:37:17.051Z,1.48
2022-09-07T14:39:46.869Z,3.08
2022-09-07T14:42:24.030Z,0.88
2022-09-07T14:44:53.525Z,2.95
2022-09-07T14:47:22.670Z,1.23
2022-09-07T14:49:52.799Z,2.38
2022-09-07T14:52:27.371Z,2.55
2022-09-07T14:54:55.242Z,2.13
2022-09-07T14:57:30.632Z,1.98
2022-09-07T15:00:37.943Z,2.58
2022-09-07T15:03:23.438Z,3.08
2022-09-07T15:06:00.787Z,1.75
2022-09-07T15:08:44.162Z,1.45
2022-09-07T15:11:37.063Z,1.10
2022-09-07T15:14:20.403Z,3.60
2022-09-07T15:19:50.264Z,2.97
2022-09-07T15:22:18.578Z,3.35
2022-09-07T15:24:49.669Z,1.48
2022-09-07T15:27:30.266Z,3.65
2022-09-07T15:29:56.803Z,3.53
2022-09-07T15:32:24.552Z,2.42
2022-09-07T15:34:51.450Z,1.48
2022-09-07T15:40:29.173Z,1.92
2022-09-07T15:43:01.451Z,3.22
2022-09-07T15:45:29.640Z,1.85
2022-09-07T15:47:57.020Z,3.63
2022-09-07T15:50:23.790Z,2.95
2022-09-07T15:52:51.662Z,1.33
2022-09-07T15:55:18.471Z,1.15
2022-09-07T15:57:51.324Z,1.65
2022-09-07T16:00:21.476Z,2.30
2022-09-07T16:03:06.565Z,4.03
2022-09-07T16:05:34.050Z,2.28
2022-09-07T16:11:04.702Z,3.03
2022-09-07T16:13:32.533Z,2.88
2022-09-07T16:15:59.795Z,1.20
2022-09-07T16:18:31.285Z,2.38
2022-09-07T16:21:05.861Z,3.22
2022-09-07T16:23:32.807Z,3.08
2022-09-07T16:26:04.371Z,3.10
2022-09-07T16:28:31.560Z,1.60
2022-09-07T16:30:58.649Z,2.90
2022-09-07T16:33:35.798Z,2.17
2022-09-07T16:36:07.304Z,3.67
2022-09-07T16:38:50.390Z,3.85
2022-09-07T16:41:34.783Z,2.85
2022-09-07T16:44:02.343Z,2.80
2022-09-07T16:46:35.166Z,1.83
2022-09-07T16:49:02.163Z,3.42
2022-09-07T16:51:28.941Z,2.00
2022-09-07T16:53:58.993Z,3.22
2022-09-07T16:56:28.089Z,3.80
2022-09-07T16:59:01.519Z,1.60
2022-09-07T17:01:36.564Z,1.63
2022-09-07T17:04:10.889Z,2.50
2022-09-07T17:06:39.613Z,3.78
2022-09-07T17:09:07.438Z,2.13
2022-09-07T17:11:36.318Z,3.55
2022-09-07T17:14:06.451Z,2.10
2022-09-07T17:16:35.955Z,1.20
2022-09-07T17:21:55.455Z,1.83
2022-09-07T17:24:32.175Z,2.25
2022-09-07T17:26:59.613Z,3.97
2022-09-07T17:29:26.552Z,5.13
2022-09-07T17:34:40.252Z,2.78
2022-09-07T17:37:10.198Z,3.53
2022-09-07T17:39:39.058Z,1.63
2022-09-07T17:42:05.881Z,1.30
2022-09-07T17:44:37.876Z,2.58
2022-09-07T17:47:05.384Z,3.78
2022-09-07T17:49:31.919Z,3.53
2022-09-07T17:52:00.866Z,2.63
2022-09-07T17:54:27.863Z,1.40
2022-09-07T17:56:54.539Z,4.10
2022-09-07T18:02:10.397Z,2.22
2022-09-07T18:04:39.210Z,1.17
2022-09-07T18:07:06.011Z,2.42
2022-09-07T18:09:32.676Z,2.83
2022-09-07T18:11:59.341Z,3.42
2022-09-07T18:14:25.946Z,1.15
2022-09-07T18:16:52.997Z,3.58
2022-09-07T18:19:20.023Z,2.30
2022-09-07T18:21:48.131Z,2.83
2022-09-07T18:24:20.965Z,4.63
2022-09-07T18:26:50.908Z,2.00
2022-09-07T18:29:33.708Z,2.80
2022-09-07T18:32:03.110Z,4.85
2022-09-07T18:34:31.797Z,1.85
2022-09-07T18:37:02.403Z,3.22
2022-09-07T18:39:29.480Z,2.72
2022-09-07T18:41:56.247Z,2.50
2022-09-07T18:47:21.192Z,2.90
2022-09-07T18:49:49.715Z,3.50
2022-09-07T18:55:03.286Z,3.55
2022-09-07T18:57:29.965Z,2.88
2022-09-07T18:59:58.697Z,2.53
2022-09-07T19:02:25.444Z,4.20
2022-09-07T19:07:39.083Z,4.88
2022-09-07T19:10:08.198Z,2.35
2022-09-07T19:12:35.439Z,5.80
2022-09-07T19:15:02.226Z,4.35
2022-09-07T19:17:31.776Z,5.68
2022-09-07T19:19:58.475Z,1.90
2022-09-07T19:22:27.311Z,1.90
2022-09-07T19:24:54.009Z,3.17
2022-09-07T19:27:20.636Z,2.80
2022-09-07T19:29:47.465Z,1.95
2022-09-07T19:32:14.261Z,2.00
2022-09-07T19:34:45.591Z,3.47
2022-09-07T19:37:13.761Z,1.83
2022-09-07T19:39:40.404Z,2.70
2022-09-07T19:42:07.425Z,4.85
2022-09-07T19:44:34.236Z,4.38
2022-09-07T19:47:01.052Z,9.55
2022-09-07T19:49:28.943Z,10.20
2022-09-07T19:51:57.006Z,9.52
2022-09-07T19:54:23.621Z,10.77
2022-09-07T19:56:50.344Z,5.07
2022-09-07T19:59:19.659Z,4.13
2022-09-07T20:01:48.403Z,6.55
2022-09-07T20:04:20.638Z,2.83
2022-09-07T20:06:50.442Z,3.30
2022-09-07T20:09:20.325Z,3.20
2022-09-07T20:11:48.064Z,3.17
2022-09-07T20:14:18.018Z,3.03
2022-09-07T20:16:44.834Z,4.05
2022-09-07T20:19:14.904Z,2.85
2022-09-07T20:21:42.559Z,2.30
2022-09-07T20:24:11.860Z,3.65
2022-09-07T20:26:38.657Z,2.45
2022-09-07T20:31:53.613Z,5.05
2022-09-07T20:34:20.597Z,1.90
2022-09-07T20:36:49.800Z,3.08
2022-09-07T20:39:17.220Z,3.33
2022-09-07T20:41:44.456Z,3.10
2022-09-07T20:44:11.611Z,2.97
2022-09-07T20:46:38.503Z,1.83
2022-09-07T20:49:05.436Z,2.10
2022-09-07T20:51:32.573Z,2.92
2022-09-07T20:53:59.301Z,1.75
2022-09-07T20:56:30.679Z,2.22
2022-09-07T20:59:02.174Z,1.90
2022-09-07T21:01:30.931Z,4.18
2022-09-07T21:04:00.603Z,1.75
2022-09-07T21:06:28.666Z,3.17
2022-09-07T21:08:57.646Z,2.05
2022-09-07T21:11:33.041Z,3.17
2022-09-07T21:14:01.126Z,1.80
2022-09-07T21:16:29.274Z,1.77
2022-09-07T21:18:58.428Z,1.60
2022-09-07T21:21:27.450Z,1.98
2022-09-07T21:23:59.244Z,1.83
2022-09-07T21:26:30.313Z,1.67
2022-09-07T21:28:58.940Z,1.85
2022-09-07T21:31:26.768Z,1.60
2022-09-07T21:33:58.138Z,1.60
2022-09-07T21:36:25.453Z,2.65
2022-09-07T21:38:54.435Z,1.63
2022-09-07T21:41:24.509Z,1.75
2022-09-07T21:44:12.711Z,1.98
2022-09-07T21:46:39.621Z,2.15
2022-09-07T21:49:06.321Z,2.05
2022-09-07T21:51:32.900Z,1.75
2022-09-07T21:54:00.574Z,1.38
2022-09-07T21:56:31.353Z,2.20
2022-09-07T21:59:00.610Z,1.58
2022-09-07T22:01:28.953Z,1.50
2022-09-07T22:04:04.059Z,1.50
2022-09-07T22:06:32.712Z,1.67
2022-09-07T22:09:00.067Z,1.35
2022-09-07T22:11:28.628Z,1.40
2022-09-07T22:14:03.176Z,2.85
2022-09-07T22:16:34.234Z,2.38
2022-09-07T22:19:01.382Z,1.50
2022-09-07T22:21:29.874Z,1.70
2022-09-07T22:24:01.425Z,1.40
2022-09-07T22:26:30.905Z,2.28
2022-09-07T22:28:59.888Z,1.27
2022-09-07T22:31:29.976Z,1.10
2022-09-07T22:33:57.562Z,1.10
2022-09-07T22:36:30.364Z,2.42
2022-09-07T22:38:59.785Z,1.20
2022-09-07T22:41:29.453Z,2.72
2022-09-07T22:43:56.619Z,1.55
2022-09-07T22:46:25.642Z,1.65
2022-09-07T22:48:54.117Z,0.95
2022-09-07T22:51:20.701Z,1.10
2022-09-07T22:53:47.472Z,1.25
2022-09-07T22:56:18.647Z,1.70
2022-09-07T22:58:57.008Z,1.13
2022-09-07T23:01:24.201Z,1.48
2022-09-07T23:03:51.786Z,1.90
2022-09-07T23:06:31.526Z,1.40
2022-09-07T23:09:00.845Z,2.05
2022-09-07T23:11:29.065Z,1.95
2022-09-07T23:13:59.360Z,1.40
2022-09-07T23:16:28.021Z,1.20
2022-09-07T23:18:59.299Z,2.35
2022-09-07T23:21:26.717Z,1.40
2022-09-07T23:23:55.919Z,1.83
2022-09-07T23:26:23.793Z,1.70
2022-09-07T23:28:55.422Z,1.50
2022-09-07T23:31:22.920Z,1.70
2022-09-07T23:33:49.988Z,3.03
2022-09-07T23:36:17.542Z,2.60
2022-09-07T23:38:45.416Z,1.88
2022-09-07T23:41:14.273Z,1.77
2022-09-07T23:43:41.718Z,2.20
2022-09-07T23:46:09.695Z,1.80
2022-09-07T23:48:36.579Z,3.20
2022-09-07T23:51:03.567Z,3.25
2022-09-07T23:53:30.566Z,1.83
2022-09-07T23:55:57.235Z,2.17
2022-09-07T23:58:24.159Z,3.22
